Time;durP1;ratioP1;P1;durP2;ratioP2;P2;SDS_P1;SDS_P2;PMS_P1;PMS_P2;Temp;Humidity;BMP_temperature;BMP_pressure;BME280_temperature;BME280_humidity;BME280_pressure;Samples;Min_cycle;Max_cycle;Signal;HPM_P1;HPM_P2
2022/04/10 00:05:25;;;;;;;4.43;1.08;;;3.80;99.90;;;;;;20792975;28;20493;-43
2022/04/10 00:15:27;;;;;;;1.63;0.52;;;3.70;99.90;;;;;;20786484;28;20401;-43
2022/04/10 00:25:29;;;;;;;3.72;1.02;;;3.60;99.90;;;;;;20806136;28;20052;-43
2022/04/10 00:35:35;;;;;;;2.10;0.73;;;3.40;99.90;;;;;;20806512;28;20080;-43
2022/04/10 00:45:36;;;;;;;1.73;0.65;;;3.30;99.90;;;;;;20804666;28;20055;-44
2022/04/10 00:55:37;;;;;;;1.20;0.52;;;3.30;99.90;;;;;;20804602;28;20482;-43
2022/04/10 01:05:42;;;;;;;3.08;0.55;;;3.20;99.90;;;;;;20802236;28;20513;-43
2022/04/10 01:15:43;;;;;;;2.25;0.82;;;3.00;99.90;;;;;;20808177;28;20042;-43
2022/04/10 01:25:44;;;;;;;2.35;0.40;;;2.90;99.90;;;;;;20799862;28;20045;-43
2022/04/10 01:35:46;;;;;;;3.08;0.98;;;2.80;99.90;;;;;;20808693;28;20046;-44
2022/04/10 01:45:47;;;;;;;1.95;0.63;;;2.60;99.90;;;;;;20819016;28;20055;-43
2022/04/10 01:55:48;;;;;;;2.15;0.52;;;2.60;99.90;;;;;;20819293;28;20045;-43
2022/04/10 02:05:49;;;;;;;5.18;0.65;;;2.50;99.90;;;;;;20817967;28;20033;-43
2022/04/10 02:15:50;;;;;;;3.08;0.65;;;2.40;99.90;;;;;;20814478;28;20067;-43
2022/04/10 02:25:52;;;;;;;3.63;0.50;;;2.30;99.90;;;;;;20796706;28;20123;-43
2022/04/10 02:35:53;;;;;;;2.15;0.68;;;2.30;99.90;;;;;;21233098;23;20060;-43
2022/04/10 02:45:54;;;;;;;1.10;0.35;;;2.20;99.90;;;;;;20820011;28;20407;-44
2022/04/10 02:55:55;;;;;;;1.60;0.60;;;2.20;99.90;;;;;;20821293;28;20055;-43
2022/04/10 03:05:56;;;;;;;3.00;0.95;;;2.10;99.90;;;;;;20816969;28;20041;-43
2022/04/10 03:15:57;;;;;;;1.90;0.75;;;2.30;99.90;;;;;;20818823;28;20196;-43
2022/04/10 03:25:59;;;;;;;3.65;0.68;;;2.20;99.90;;;;;;20818304;28;20041;-43
2022/04/10 03:36:00;;;;;;;1.33;0.60;;;2.10;99.90;;;;;;20816871;28;20083;-43
2022/04/10 03:46:02;;;;;;;1.83;0.47;;;2.00;99.90;;;;;;20808167;28;20056;-44
2022/04/10 03:56:04;;;;;;;1.35;0.38;;;2.00;99.90;;;;;;20807460;28;20037;-43
2022/04/10 04:06:05;;;;;;;2.35;0.35;;;2.00;99.90;;;;;;20803692;28;20044;-43
2022/04/10 04:16:07;;;;;;;9.32;0.52;;;2.00;99.90;;;;;;20806888;28;20050;-43
2022/04/10 04:26:08;;;;;;;2.97;0.80;;;2.20;99.90;;;;;;20811202;28;20045;-43
2022/04/10 04:36:09;;;;;;;1.52;0.70;;;2.50;99.90;;;;;;20813694;28;20045;-43
2022/04/10 04:46:11;;;;;;;2.30;0.40;;;2.70;99.90;;;;;;20812893;28;20048;-43
2022/04/10 04:56:11;;;;;;;1.50;0.32;;;2.70;99.90;;;;;;20826132;28;20042;-44
2022/04/10 05:06:13;;;;;;;2.13;0.60;;;2.60;99.90;;;;;;20880163;28;20496;-43
2022/04/10 05:16:14;;;;;;;2.08;0.88;;;2.50;99.90;;;;;;20833696;28;20541;-43
2022/04/10 05:26:15;;;;;;;4.93;0.90;;;2.40;99.90;;;;;;20832417;28;20049;-43
2022/04/10 05:36:17;;;;;;;4.18;0.90;;;2.50;99.90;;;;;;20832721;28;20049;-43
2022/04/10 05:46:18;;;;;;;4.30;0.60;;;2.50;99.90;;;;;;20831368;28;20045;-43
2022/04/10 05:56:19;;;;;;;3.10;0.85;;;2.60;99.90;;;;;;20831478;28;20047;-43
2022/04/10 06:06:20;;;;;;;0.77;0.30;;;2.80;99.90;;;;;;20831557;28;20041;-43
2022/04/10 06:16:21;;;;;;;1.42;0.60;;;3.10;99.90;;;;;;20828661;28;20407;-43
2022/04/10 06:26:22;;;;;;;1.42;0.22;;;3.20;99.90;;;;;;20827374;28;20045;-43
2022/04/10 06:36:24;;;;;;;1.00;0.25;;;3.40;99.90;;;;;;20824527;28;20050;-43
2022/04/10 06:46:26;;;;;;;0.57;0.20;;;4.10;99.90;;;;;;20826192;28;20424;-43
2022/04/10 06:56:27;;;;;;;0.82;0.28;;;4.40;99.90;;;;;;20821840;28;20493;-43
2022/04/10 07:06:28;;;;;;;0.80;0.40;;;4.30;99.90;;;;;;20827993;28;20427;-43
2022/04/10 07:16:30;;;;;;;1.10;0.32;;;4.30;99.90;;;;;;20841158;28;20069;-43
2022/04/10 07:26:31;;;;;;;0.63;0.20;;;4.50;99.90;;;;;;20858174;28;20060;-43
2022/04/10 07:36:32;;;;;;;8.07;0.40;;;4.80;99.90;;;;;;20857275;28;20049;-43
2022/04/10 07:56:53;;;;;;;2.30;0.90;;;5.80;99.90;;;;;;20859389;28;20479;-42
2022/04/10 08:06:54;;;;;;;1.52;0.70;;;6.30;99.90;;;;;;20828024;28;20136;-43
2022/04/10 08:16:55;;;;;;;2.85;0.35;;;6.80;99.90;;;;;;20848083;28;20037;-43
2022/04/10 08:26:56;;;;;;;1.33;0.40;;;7.50;99.90;;;;;;20850269;28;20049;-43
2022/04/10 08:37:03;;;;;;;11.50;0.85;;;7.80;99.90;;;;;;20827970;28;20136;-43
2022/04/10 08:47:04;;;;;;;2.27;0.50;;;8.30;99.90;;;;;;20870168;28;20240;-43
2022/04/10 08:57:06;;;;;;;3.67;0.30;;;8.50;99.90;;;;;;20855843;28;20072;-43
2022/04/10 09:07:09;;;;;;;1.85;0.30;;;8.70;99.90;;;;;;20855169;28;20072;-44
2022/04/10 09:17:29;;;;;;;1.45;1.00;;;9.10;99.90;;;;;;20821855;28;20041;-43
2022/04/10 09:27:32;;;;;;;1.50;0.43;;;9.50;99.90;;;;;;20820879;28;20042;-43
2022/04/10 09:38:01;;;;;;;1.70;0.50;;;9.20;99.90;;;;;;20819014;28;20045;-43
2022/04/10 09:48:24;;;;;;;1.23;0.40;;;9.30;99.90;;;;;;20816380;28;20414;-43
2022/04/10 09:58:25;;;;;;;6.30;0.73;;;9.60;99.90;;;;;;20826942;28;20120;-44
2022/04/10 10:08:28;;;;;;;0.77;0.30;;;10.20;99.90;;;;;;20863296;28;20056;-43
2022/04/10 10:18:29;;;;;;;4.63;0.45;;;10.10;99.90;;;;;;20860392;28;20045;-42
2022/04/10 10:29:08;;;;;;;0.82;0.28;;;9.80;99.90;;;;;;20865933;28;20037;-43
2022/04/10 10:39:09;;;;;;;0.47;0.30;;;9.70;99.90;;;;;;20823894;28;21533;-43
2022/04/10 10:49:19;;;;;;;0.55;0.10;;;9.20;99.90;;;;;;20808239;28;20340;-43
2022/04/10 10:59:43;;;;;;;0.43;0.10;;;10.20;99.90;;;;;;20808221;28;20034;-43
2022/04/10 11:10:10;;;;;;;2.80;0.32;;;10.10;99.90;;;;;;20769089;28;20052;-43
2022/04/10 11:20:12;;;;;;;2.20;0.32;;;10.80;99.90;;;;;;20748936;28;20472;-43
2022/04/10 11:30:31;;;;;;;0.05;0.00;;;11.10;99.90;;;;;;20746295;28;20049;-43
2022/04/10 11:40:35;;;;;;;0.82;0.10;;;11.50;99.90;;;;;;20811830;28;20049;-43
2022/04/10 11:50:38;;;;;;;0.40;0.20;;;11.70;99.90;;;;;;20818677;28;20045;-43
2022/04/10 12:00:53;;;;;;;3.72;0.10;;;12.50;99.90;;;;;;20823192;28;20033;-43
2022/04/10 12:10:59;;;;;;;2.75;0.63;;;13.50;99.40;;;;;;20824416;28;20363;-43
2022/04/10 12:21:03;;;;;;;0.50;0.20;;;13.50;99.90;;;;;;20826994;28;20059;-43
2022/04/10 12:31:04;;;;;;;1.05;0.17;;;13.60;99.30;;;;;;20829713;28;20045;-43
2022/04/10 12:41:06;;;;;;;0.52;0.10;;;13.70;98.60;;;;;;20827239;28;20056;-43
2022/04/10 12:51:11;;;;;;;0.45;0.20;;;14.50;96.10;;;;;;20825466;28;20061;-43
2022/04/10 13:01:32;;;;;;;2.05;0.25;;;14.40;95.20;;;;;;20825133;28;20149;-43
2022/04/10 13:11:35;;;;;;;0.82;0.40;;;15.00;99.00;;;;;;20825685;28;20036;-44
2022/04/10 13:21:38;;;;;;;1.55;0.70;;;15.20;96.80;;;;;;20825395;28;20029;-44
2022/04/10 13:31:40;;;;;;;3.05;0.43;;;14.50;97.30;;;;;;20823357;28;20061;-43
2022/04/10 13:41:43;;;;;;;0.70;0.17;;;14.70;98.00;;;;;;20821184;28;20038;-44
2022/04/10 13:51:45;;;;;;;0.20;0.10;;;16.00;91.40;;;;;;20819365;28;20046;-44
2022/04/10 14:01:46;;;;;;;0.30;0.10;;;16.30;88.30;;;;;;20818812;28;20067;-44
2022/04/10 14:11:47;;;;;;;1.35;0.10;;;16.30;86.80;;;;;;20819219;28;20051;-43
2022/04/10 14:21:48;;;;;;;0.43;0.10;;;15.30;84.10;;;;;;20819411;28;20058;-47
2022/04/10 14:31:49;;;;;;;0.63;0.30;;;14.30;88.20;;;;;;20817386;28;20063;-43
2022/04/10 14:41:50;;;;;;;0.95;0.20;;;14.00;91.20;;;;;;20811502;28;20442;-43
2022/04/10 14:51:53;;;;;;;1.17;0.15;;;13.50;90.70;;;;;;20817384;28;20393;-43
2022/04/10 15:01:54;;;;;;;0.08;0.03;;;13.00;90.50;;;;;;20816927;28;20038;-43
2022/04/10 15:11:55;;;;;;;0.73;0.20;;;13.00;90.40;;;;;;20821061;28;20049;-43
2022/04/10 15:21:56;;;;;;;0.60;0.20;;;12.20;93.10;;;;;;20818547;28;20037;-43
2022/04/10 15:32:00;;;;;;;0.20;0.10;;;12.40;93.80;;;;;;20809697;28;20092;-43
2022/04/10 15:42:01;;;;;;;2.20;0.38;;;12.60;93.50;;;;;;20803961;28;20045;-43
2022/04/10 15:52:02;;;;;;;0.95;0.35;;;12.70;91.40;;;;;;20812785;28;20079;-43
2022/04/10 16:02:04;;;;;;;1.38;0.80;;;12.70;92.80;;;;;;20808254;28;20061;-44
2022/04/10 16:12:05;;;;;;;0.85;0.30;;;12.30;91.10;;;;;;20801711;28;20041;-43
2022/04/10 16:22:06;;;;;;;0.68;0.35;;;12.50;91.20;;;;;;20808100;28;20539;-43
2022/04/10 16:32:07;;;;;;;1.40;0.43;;;12.40;91.80;;;;;;20806709;28;20103;-45
2022/04/10 16:42:08;;;;;;;1.85;0.52;;;12.40;92.50;;;;;;20822466;28;20084;-43
2022/04/10 16:52:09;;;;;;;3.15;0.98;;;12.10;93.60;;;;;;20830037;28;20055;-43
2022/04/10 17:02:12;;;;;;;1.80;0.40;;;12.20;92.30;;;;;;20816836;28;20055;-43
2022/04/10 17:12:13;;;;;;;2.13;0.55;;;11.90;95.30;;;;;;20822461;28;20052;-43
2022/04/10 17:22:15;;;;;;;2.10;0.43;;;11.80;95.50;;;;;;20820704;28;20040;-44
2022/04/10 17:32:17;;;;;;;1.33;0.50;;;11.60;95.80;;;;;;20798867;28;20382;-43
2022/04/10 17:42:19;;;;;;;1.38;0.40;;;11.30;97.40;;;;;;20815127;28;20055;-43
2022/04/10 17:52:23;;;;;;;1.25;0.50;;;10.90;98.60;;;;;;20831126;28;20049;-43
2022/04/10 18:02:24;;;;;;;1.08;0.43;;;10.70;99.90;;;;;;20832550;28;20048;-43
2022/04/10 18:12:25;;;;;;;0.88;0.38;;;10.40;99.90;;;;;;20827336;28;20037;-43
2022/04/10 18:22:27;;;;;;;6.22;0.73;;;10.20;99.90;;;;;;20831283;28;20045;-48
2022/04/10 18:32:30;;;;;;;2.08;0.77;;;10.00;99.90;;;;;;20832310;28;20045;-43
2022/04/10 18:42:37;;;;;;;1.85;0.68;;;9.80;99.90;;;;;;20803947;28;20060;-43
2022/04/10 18:52:39;;;;;;;2.25;0.63;;;9.70;99.90;;;;;;20790983;28;20117;-43
2022/04/10 19:02:40;;;;;;;1.42;0.50;;;9.50;99.90;;;;;;20808228;28;20041;-43
2022/04/10 19:12:41;;;;;;;1.73;0.60;;;9.10;99.90;;;;;;20816815;28;20124;-43
2022/04/10 19:22:42;;;;;;;1.58;0.88;;;8.70;99.90;;;;;;20820677;28;20128;-43
2022/04/10 19:32:44;;;;;;;3.58;1.40;;;8.60;99.90;;;;;;20775663;28;20053;-42
2022/04/10 19:42:45;;;;;;;4.50;1.77;;;8.30;99.90;;;;;;20693943;28;20041;-43
2022/04/10 20:03:06;;;;;;;5.28;2.28;;;7.90;99.90;;;;;;20699073;28;20140;-43
2022/04/10 20:13:10;;;;;;;4.25;1.52;;;7.70;99.90;;;;;;20676984;28;20050;-43
2022/04/10 20:23:12;;;;;;;5.82;2.88;;;7.70;99.90;;;;;;20678972;28;20076;-43
2022/04/10 20:33:13;;;;;;;4.72;1.63;;;7.60;99.90;;;;;;20706262;28;20041;-43
2022/04/10 20:43:14;;;;;;;2.13;1.08;;;7.50;99.90;;;;;;20788191;28;20156;-43
2022/04/10 20:53:15;;;;;;;3.92;1.27;;;7.50;99.90;;;;;;20784705;28;20045;-43
2022/04/10 21:03:16;;;;;;;2.28;1.35;;;7.40;99.90;;;;;;20788851;28;20042;-43
2022/04/10 21:13:18;;;;;;;2.92;1.20;;;7.20;99.90;;;;;;20836480;28;20076;-43
2022/04/10 21:23:19;;;;;;;3.88;1.23;;;7.10;99.90;;;;;;20842059;28;20675;-43
2022/04/10 21:33:21;;;;;;;3.00;1.30;;;7.00;99.90;;;;;;20838100;28;20077;-43
2022/04/10 21:43:22;;;;;;;1.92;0.80;;;6.80;99.90;;;;;;20769180;28;20052;-43
2022/04/10 21:53:23;;;;;;;3.28;0.95;;;6.70;99.90;;;;;;20779980;28;20044;-43
2022/04/10 22:03:24;;;;;;;2.50;0.50;;;6.70;99.90;;;;;;20786611;28;20412;-43
2022/04/10 22:13:26;;;;;;;1.27;0.60;;;6.50;99.90;;;;;;20782602;28;20054;-43
2022/04/10 22:23:27;;;;;;;1.67;0.80;;;6.50;99.90;;;;;;20779790;28;20052;-43
2022/04/10 22:33:28;;;;;;;1.23;0.43;;;6.40;99.90;;;;;;20780200;28;20049;-43
2022/04/10 22:43:29;;;;;;;1.63;0.70;;;6.30;99.90;;;;;;20779466;28;20053;-42
2022/04/10 22:53:31;;;;;;;2.45;0.75;;;6.30;99.90;;;;;;20778110;28;20047;-43
2022/04/10 23:03:32;;;;;;;3.55;0.70;;;6.30;99.90;;;;;;20779861;28;20592;-43
2022/04/10 23:13:34;;;;;;;1.02;0.60;;;6.20;99.90;;;;;;20776911;28;20049;-43
2022/04/10 23:23:35;;;;;;;1.25;0.52;;;6.20;99.90;;;;;;20770945;28;20033;-43
2022/04/10 23:33:36;;;;;;;3.28;1.33;;;6.10;99.90;;;;;;20769135;28;20061;-43
2022/04/10 23:43:37;;;;;;;1.33;0.32;;;6.10;99.90;;;;;;20772792;28;20033;-43
2022/04/10 23:53:38;;;;;;;1.90;0.47;;;6.00;99.90;;;;;;20766323;28;20049;-43
